sensor_id;sensor_type;location;lat;lon;timestamp;P1;durP1;ratioP1;P2;durP2;ratioP2
2480;SDS011;57396;48.742;9.128;2022-09-13T00:00:26;7.80;;;5.67;;
2480;SDS011;57396;48.742;9.128;2022-09-13T00:02:51;6.40;;;5.60;;
2480;SDS011;57396;48.742;9.128;2022-09-13T00:05:17;6.17;;;4.87;;
2480;SDS011;57396;48.742;9.128;2022-09-13T00:07:42;6.90;;;3.53;;
2480;SDS011;57396;48.742;9.128;2022-09-13T00:10:08;6.30;;;2.90;;
2480;SDS011;57396;48.742;9.128;2022-09-13T00:12:33;2.43;;;2.17;;
2480;SDS011;57396;48.742;9.128;2022-09-13T00:14:59;2.50;;;2.30;;
2480;SDS011;57396;48.742;9.128;2022-09-13T00:17:24;3.90;;;2.13;;
2480;SDS011;57396;48.742;9.128;2022-09-13T00:19:50;4.60;;;2.70;;
2480;SDS011;57396;48.742;9.128;2022-09-13T00:22:16;3.43;;;2.40;;
2480;SDS011;57396;48.742;9.128;2022-09-13T00:24:41;3.53;;;2.27;;
2480;SDS011;57396;48.742;9.128;2022-09-13T00:27:07;2.20;;;2.10;;
2480;SDS011;57396;48.742;9.128;2022-09-13T00:29:32;2.40;;;2.20;;
2480;SDS011;57396;48.742;9.128;2022-09-13T00:31:57;1.77;;;1.57;;
2480;SDS011;57396;48.742;9.128;2022-09-13T00:34:23;3.27;;;2.57;;
2480;SDS011;57396;48.742;9.128;2022-09-13T00:36:48;4.23;;;2.90;;
2480;SDS011;57396;48.742;9.128;2022-09-13T00:39:14;2.63;;;2.20;;
2480;SDS011;57396;48.742;9.128;2022-09-13T00:41:39;2.63;;;2.43;;
2480;SDS011;57396;48.742;9.128;2022-09-13T00:44:05;3.63;;;2.50;;
2480;SDS011;57396;48.742;9.128;2022-09-13T00:47:08;3.40;;;1.80;;
2480;SDS011;57396;48.742;9.128;2022-09-13T00:49:35;5.50;;;3.70;;
2480;SDS011;57396;48.742;9.128;2022-09-13T00:52:03;6.27;;;3.37;;
2480;SDS011;57396;48.742;9.128;2022-09-13T00:54:33;3.70;;;3.40;;
2480;SDS011;57396;48.742;9.128;2022-09-13T00:57:04;2.47;;;2.27;;
2480;SDS011;57396;48.742;9.128;2022-09-13T00:59:32;3.20;;;2.70;;
2480;SDS011;57396;48.742;9.128;2022-09-13T01:02:09;3.33;;;3.03;;
2480;SDS011;57396;48.742;9.128;2022-09-13T01:04:35;4.50;;;2.80;;
2480;SDS011;57396;48.742;9.128;2022-09-13T01:07:02;7.23;;;3.50;;
2480;SDS011;57396;48.742;9.128;2022-09-13T01:09:29;5.00;;;3.17;;
2480;SDS011;57396;48.742;9.128;2022-09-13T01:11:59;5.30;;;1.87;;
2480;SDS011;57396;48.742;9.128;2022-09-13T01:14:28;2.57;;;1.73;;
2480;SDS011;57396;48.742;9.128;2022-09-13T01:16:55;6.03;;;1.60;;
2480;SDS011;57396;48.742;9.128;2022-09-13T01:19:20;3.40;;;3.10;;
2480;SDS011;57396;48.742;9.128;2022-09-13T01:22:01;3.47;;;3.13;;
2480;SDS011;57396;48.742;9.128;2022-09-13T01:30:21;2.40;;;2.20;;
2480;SDS011;57396;48.742;9.128;2022-09-13T01:41:19;3.70;;;2.37;;
2480;SDS011;57396;48.742;9.128;2022-09-13T01:46:38;3.30;;;2.00;;
2480;SDS011;57396;48.742;9.128;2022-09-13T01:49:20;3.67;;;2.40;;
2480;SDS011;57396;48.742;9.128;2022-09-13T01:51:58;1.93;;;1.83;;
2480;SDS011;57396;48.742;9.128;2022-09-13T01:54:29;5.73;;;2.00;;
2480;SDS011;57396;48.742;9.128;2022-09-13T01:57:18;2.57;;;1.60;;
2480;SDS011;57396;48.742;9.128;2022-09-13T01:59:58;3.00;;;1.80;;
2480;SDS011;57396;48.742;9.128;2022-09-13T02:02:30;2.40;;;2.07;;
2480;SDS011;57396;48.742;9.128;2022-09-13T02:05:17;2.97;;;2.03;;
2480;SDS011;57396;48.742;9.128;2022-09-13T02:08:03;2.20;;;1.87;;
2480;SDS011;57396;48.742;9.128;2022-09-13T02:10:33;2.13;;;1.97;;
2480;SDS011;57396;48.742;9.128;2022-09-13T02:13:03;4.40;;;1.90;;
2480;SDS011;57396;48.742;9.128;2022-09-13T02:15:35;2.20;;;1.97;;
2480;SDS011;57396;48.742;9.128;2022-09-13T02:21:08;1.93;;;1.77;;
2480;SDS011;57396;48.742;9.128;2022-09-13T02:23:38;2.80;;;1.93;;
2480;SDS011;57396;48.742;9.128;2022-09-13T02:26:07;3.40;;;2.00;;
2480;SDS011;57396;48.742;9.128;2022-09-13T02:28:38;3.10;;;2.50;;
2480;SDS011;57396;48.742;9.128;2022-09-13T02:31:07;3.43;;;1.77;;
2480;SDS011;57396;48.742;9.128;2022-09-13T02:33:53;2.27;;;1.77;;
2480;SDS011;57396;48.742;9.128;2022-09-13T02:36:25;2.53;;;1.60;;
2480;SDS011;57396;48.742;9.128;2022-09-13T02:38:59;1.83;;;1.73;;
2480;SDS011;57396;48.742;9.128;2022-09-13T02:41:33;2.13;;;1.93;;
2480;SDS011;57396;48.742;9.128;2022-09-13T02:44:08;2.20;;;2.00;;
2480;SDS011;57396;48.742;9.128;2022-09-13T02:54:25;2.23;;;1.90;;
2480;SDS011;57396;48.742;9.128;2022-09-13T02:57:06;1.83;;;1.63;;
2480;SDS011;57396;48.742;9.128;2022-09-13T02:59:34;4.53;;;1.60;;
2480;SDS011;57396;48.742;9.128;2022-09-13T03:02:04;2.03;;;1.83;;
2480;SDS011;57396;48.742;9.128;2022-09-13T03:04:32;6.27;;;1.80;;
2480;SDS011;57396;48.742;9.128;2022-09-13T03:06:58;2.73;;;1.90;;
2480;SDS011;57396;48.742;9.128;2022-09-13T03:09:24;2.70;;;1.90;;
2480;SDS011;57396;48.742;9.128;2022-09-13T03:15:10;2.20;;;2.00;;
2480;SDS011;57396;48.742;9.128;2022-09-13T03:22:57;2.43;;;1.67;;
2480;SDS011;57396;48.742;9.128;2022-09-13T03:31:39;2.33;;;1.67;;
2480;SDS011;57396;48.742;9.128;2022-09-13T03:40:14;2.00;;;1.90;;
2480;SDS011;57396;48.742;9.128;2022-09-13T03:45:46;3.30;;;2.10;;
2480;SDS011;57396;48.742;9.128;2022-09-13T03:48:13;3.07;;;2.00;;
2480;SDS011;57396;48.742;9.128;2022-09-13T03:50:39;1.83;;;1.63;;
2480;SDS011;57396;48.742;9.128;2022-09-13T03:53:07;2.60;;;2.00;;
2480;SDS011;57396;48.742;9.128;2022-09-13T03:55:37;2.73;;;1.93;;
2480;SDS011;57396;48.742;9.128;2022-09-13T03:58:05;2.20;;;1.87;;
2480;SDS011;57396;48.742;9.128;2022-09-13T04:00:32;4.43;;;1.90;;
2480;SDS011;57396;48.742;9.128;2022-09-13T04:02:58;2.30;;;2.10;;
2480;SDS011;57396;48.742;9.128;2022-09-13T04:05:23;4.77;;;2.10;;
2480;SDS011;57396;48.742;9.128;2022-09-13T04:07:48;3.27;;;2.17;;
2480;SDS011;57396;48.742;9.128;2022-09-13T04:10:14;2.37;;;2.13;;
2480;SDS011;57396;48.742;9.128;2022-09-13T04:12:39;2.37;;;1.93;;
2480;SDS011;57396;48.742;9.128;2022-09-13T04:15:05;6.10;;;2.10;;
2480;SDS011;57396;48.742;9.128;2022-09-13T04:17:31;2.73;;;2.20;;
2480;SDS011;57396;48.742;9.128;2022-09-13T04:19:57;2.10;;;1.87;;
2480;SDS011;57396;48.742;9.128;2022-09-13T04:22:22;3.57;;;2.23;;
2480;SDS011;57396;48.742;9.128;2022-09-13T04:24:48;3.33;;;2.00;;
2480;SDS011;57396;48.742;9.128;2022-09-13T04:27:13;2.40;;;2.20;;
2480;SDS011;57396;48.742;9.128;2022-09-13T04:29:38;2.73;;;2.50;;
2480;SDS011;57396;48.742;9.128;2022-09-13T04:32:04;5.70;;;2.50;;
2480;SDS011;57396;48.742;9.128;2022-09-13T04:34:29;2.30;;;2.10;;
2480;SDS011;57396;48.742;9.128;2022-09-13T04:36:55;2.90;;;2.67;;
2480;SDS011;57396;48.742;9.128;2022-09-13T04:39:21;5.37;;;2.60;;
2480;SDS011;57396;48.742;9.128;2022-09-13T04:41:48;2.40;;;2.17;;
2480;SDS011;57396;48.742;9.128;2022-09-13T04:44:14;3.60;;;2.10;;
2480;SDS011;57396;48.742;9.128;2022-09-13T04:46:40;4.40;;;2.60;;
2480;SDS011;57396;48.742;9.128;2022-09-13T04:49:08;2.60;;;2.40;;
2480;SDS011;57396;48.742;9.128;2022-09-13T04:51:34;2.73;;;2.27;;
2480;SDS011;57396;48.742;9.128;2022-09-13T04:54:00;3.10;;;2.53;;
2480;SDS011;57396;48.742;9.128;2022-09-13T04:56:25;4.60;;;2.50;;
2480;SDS011;57396;48.742;9.128;2022-09-13T04:58:51;3.40;;;2.60;;
2480;SDS011;57396;48.742;9.128;2022-09-13T05:01:18;4.20;;;2.43;;
2480;SDS011;57396;48.742;9.128;2022-09-13T05:03:44;3.00;;;2.70;;
2480;SDS011;57396;48.742;9.128;2022-09-13T05:06:10;4.60;;;2.40;;
2480;SDS011;57396;48.742;9.128;2022-09-13T05:08:38;3.40;;;3.00;;
2480;SDS011;57396;48.742;9.128;2022-09-13T05:11:04;3.23;;;2.50;;
2480;SDS011;57396;48.742;9.128;2022-09-13T05:13:30;4.03;;;3.60;;
2480;SDS011;57396;48.742;9.128;2022-09-13T05:15:56;8.40;;;3.90;;
2480;SDS011;57396;48.742;9.128;2022-09-13T05:18:26;4.50;;;3.93;;
2480;SDS011;57396;48.742;9.128;2022-09-13T05:20:55;4.80;;;3.93;;
2480;SDS011;57396;48.742;9.128;2022-09-13T05:23:22;5.87;;;3.00;;
2480;SDS011;57396;48.742;9.128;2022-09-13T05:25:54;4.90;;;3.73;;
2480;SDS011;57396;48.742;9.128;2022-09-13T05:28:24;3.20;;;2.83;;
2480;SDS011;57396;48.742;9.128;2022-09-13T05:31:01;3.50;;;3.13;;
2480;SDS011;57396;48.742;9.128;2022-09-13T05:33:29;6.10;;;3.70;;
2480;SDS011;57396;48.742;9.128;2022-09-13T05:35:57;6.00;;;4.47;;
2480;SDS011;57396;48.742;9.128;2022-09-13T05:38:22;10.37;;;5.10;;
2480;SDS011;57396;48.742;9.128;2022-09-13T05:40:52;9.57;;;6.33;;
2480;SDS011;57396;48.742;9.128;2022-09-13T05:43:21;8.10;;;6.53;;
2480;SDS011;57396;48.742;9.128;2022-09-13T05:45:49;11.03;;;7.57;;
2480;SDS011;57396;48.742;9.128;2022-09-13T05:48:15;11.00;;;6.30;;
2480;SDS011;57396;48.742;9.128;2022-09-13T05:50:41;7.73;;;6.47;;
2480;SDS011;57396;48.742;9.128;2022-09-13T05:53:06;12.13;;;9.23;;
2480;SDS011;57396;48.742;9.128;2022-09-13T05:55:32;12.17;;;8.40;;
2480;SDS011;57396;48.742;9.128;2022-09-13T05:57:58;13.83;;;8.90;;
2480;SDS011;57396;48.742;9.128;2022-09-13T06:00:25;13.03;;;8.50;;
2480;SDS011;57396;48.742;9.128;2022-09-13T06:02:51;9.93;;;8.17;;
2480;SDS011;57396;48.742;9.128;2022-09-13T06:05:16;23.83;;;18.90;;
2480;SDS011;57396;48.742;9.128;2022-09-13T06:07:42;14.67;;;10.30;;
2480;SDS011;57396;48.742;9.128;2022-09-13T06:10:08;17.47;;;13.70;;
2480;SDS011;57396;48.742;9.128;2022-09-13T06:12:34;18.00;;;14.53;;
2480;SDS011;57396;48.742;9.128;2022-09-13T06:15:00;20.40;;;15.83;;
2480;SDS011;57396;48.742;9.128;2022-09-13T06:17:25;17.60;;;13.17;;
2480;SDS011;57396;48.742;9.128;2022-09-13T06:19:51;15.13;;;10.80;;
2480;SDS011;57396;48.742;9.128;2022-09-13T06:22:16;13.13;;;10.40;;
2480;SDS011;57396;48.742;9.128;2022-09-13T06:24:41;14.20;;;9.70;;
2480;SDS011;57396;48.742;9.128;2022-09-13T06:27:07;9.37;;;7.50;;
2480;SDS011;57396;48.742;9.128;2022-09-13T06:29:34;10.00;;;7.20;;
2480;SDS011;57396;48.742;9.128;2022-09-13T06:32:00;8.47;;;7.40;;
2480;SDS011;57396;48.742;9.128;2022-09-13T06:34:26;14.43;;;6.83;;
2480;SDS011;57396;48.742;9.128;2022-09-13T06:36:52;15.73;;;7.30;;
2480;SDS011;57396;48.742;9.128;2022-09-13T06:39:17;8.80;;;5.80;;
2480;SDS011;57396;48.742;9.128;2022-09-13T06:41:43;8.87;;;5.70;;
2480;SDS011;57396;48.742;9.128;2022-09-13T06:44:08;7.63;;;4.90;;
2480;SDS011;57396;48.742;9.128;2022-09-13T06:46:34;9.20;;;5.20;;
2480;SDS011;57396;48.742;9.128;2022-09-13T06:49:00;14.63;;;4.00;;
2480;SDS011;57396;48.742;9.128;2022-09-13T06:51:28;10.73;;;3.80;;
2480;SDS011;57396;48.742;9.128;2022-09-13T06:53:54;5.73;;;3.53;;
2480;SDS011;57396;48.742;9.128;2022-09-13T06:56:25;6.33;;;3.40;;
2480;SDS011;57396;48.742;9.128;2022-09-13T06:58:58;3.23;;;2.93;;
2480;SDS011;57396;48.742;9.128;2022-09-13T07:01:29;3.87;;;2.77;;
2480;SDS011;57396;48.742;9.128;2022-09-13T07:06:30;3.50;;;3.03;;
2480;SDS011;57396;48.742;9.128;2022-09-13T07:09:00;4.40;;;3.20;;
2480;SDS011;57396;48.742;9.128;2022-09-13T07:11:28;5.50;;;3.00;;
2480;SDS011;57396;48.742;9.128;2022-09-13T07:13:57;8.90;;;3.27;;
2480;SDS011;57396;48.742;9.128;2022-09-13T07:16:24;45.30;;;6.47;;
2480;SDS011;57396;48.742;9.128;2022-09-13T07:18:53;16.07;;;3.30;;
2480;SDS011;57396;48.742;9.128;2022-09-13T07:21:20;8.70;;;3.23;;
2480;SDS011;57396;48.742;9.128;2022-09-13T07:23:46;10.50;;;3.47;;
2480;SDS011;57396;48.742;9.128;2022-09-13T07:26:12;13.53;;;3.43;;
2480;SDS011;57396;48.742;9.128;2022-09-13T07:28:39;7.90;;;3.20;;
2480;SDS011;57396;48.742;9.128;2022-09-13T07:31:19;6.37;;;4.63;;
2480;SDS011;57396;48.742;9.128;2022-09-13T07:33:46;23.20;;;12.97;;
2480;SDS011;57396;48.742;9.128;2022-09-13T07:36:13;8.63;;;6.40;;
2480;SDS011;57396;48.742;9.128;2022-09-13T07:38:39;15.70;;;6.17;;
2480;SDS011;57396;48.742;9.128;2022-09-13T07:41:08;14.40;;;3.53;;
2480;SDS011;57396;48.742;9.128;2022-09-13T07:43:35;9.73;;;3.90;;
2480;SDS011;57396;48.742;9.128;2022-09-13T07:46:05;5.73;;;3.53;;
2480;SDS011;57396;48.742;9.128;2022-09-13T07:48:34;20.23;;;4.60;;
2480;SDS011;57396;48.742;9.128;2022-09-13T07:51:02;7.33;;;3.60;;
2480;SDS011;57396;48.742;9.128;2022-09-13T07:53:29;10.77;;;4.30;;
2480;SDS011;57396;48.742;9.128;2022-09-13T07:56:06;11.60;;;4.37;;
2480;SDS011;57396;48.742;9.128;2022-09-13T07:58:33;5.07;;;3.30;;
2480;SDS011;57396;48.742;9.128;2022-09-13T08:01:18;14.33;;;3.47;;
2480;SDS011;57396;48.742;9.128;2022-09-13T08:03:49;17.33;;;3.47;;
2480;SDS011;57396;48.742;9.128;2022-09-13T08:06:18;8.90;;;2.90;;
2480;SDS011;57396;48.742;9.128;2022-09-13T08:08:44;8.63;;;2.93;;
2480;SDS011;57396;48.742;9.128;2022-09-13T08:11:11;8.73;;;3.30;;
2480;SDS011;57396;48.742;9.128;2022-09-13T08:13:39;5.10;;;3.10;;
2480;SDS011;57396;48.742;9.128;2022-09-13T08:16:04;8.90;;;3.27;;
2480;SDS011;57396;48.742;9.128;2022-09-13T08:18:31;7.57;;;2.83;;
2480;SDS011;57396;48.742;9.128;2022-09-13T08:20:57;10.47;;;3.67;;
2480;SDS011;57396;48.742;9.128;2022-09-13T08:23:24;9.03;;;2.90;;
2480;SDS011;57396;48.742;9.128;2022-09-13T08:25:49;10.80;;;2.70;;
2480;SDS011;57396;48.742;9.128;2022-09-13T08:28:16;14.10;;;3.60;;
2480;SDS011;57396;48.742;9.128;2022-09-13T08:30:42;25.40;;;3.20;;
2480;SDS011;57396;48.742;9.128;2022-09-13T08:33:09;17.57;;;4.23;;
2480;SDS011;57396;48.742;9.128;2022-09-13T08:35:36;14.40;;;2.80;;
2480;SDS011;57396;48.742;9.128;2022-09-13T08:38:02;6.87;;;2.57;;
2480;SDS011;57396;48.742;9.128;2022-09-13T08:40:29;10.23;;;3.57;;
2480;SDS011;57396;48.742;9.128;2022-09-13T08:45:38;8.30;;;2.40;;
2480;SDS011;57396;48.742;9.128;2022-09-13T08:48:07;5.47;;;2.87;;
2480;SDS011;57396;48.742;9.128;2022-09-13T08:50:36;6.93;;;2.70;;
2480;SDS011;57396;48.742;9.128;2022-09-13T08:55:39;9.50;;;2.23;;
2480;SDS011;57396;48.742;9.128;2022-09-13T09:03:59;6.13;;;2.43;;
2480;SDS011;57396;48.742;9.128;2022-09-13T09:06:28;9.93;;;2.30;;
2480;SDS011;57396;48.742;9.128;2022-09-13T09:09:03;6.30;;;2.30;;
2480;SDS011;57396;48.742;9.128;2022-09-13T09:14:03;5.03;;;2.37;;
2480;SDS011;57396;48.742;9.128;2022-09-13T09:16:54;7.80;;;1.70;;
2480;SDS011;57396;48.742;9.128;2022-09-13T09:21:50;3.60;;;1.90;;
2480;SDS011;57396;48.742;9.128;2022-09-13T09:24:17;8.60;;;1.90;;
2480;SDS011;57396;48.742;9.128;2022-09-13T09:26:45;9.60;;;2.03;;
2480;SDS011;57396;48.742;9.128;2022-09-13T09:29:20;3.73;;;1.97;;
2480;SDS011;57396;48.742;9.128;2022-09-13T09:32:02;7.53;;;2.03;;
2480;SDS011;57396;48.742;9.128;2022-09-13T09:37:45;2.83;;;1.90;;
2480;SDS011;57396;48.742;9.128;2022-09-13T09:40:16;5.20;;;1.77;;
2480;SDS011;57396;48.742;9.128;2022-09-13T09:42:46;5.57;;;1.73;;
2480;SDS011;57396;48.742;9.128;2022-09-13T09:47:59;4.67;;;1.80;;
2480;SDS011;57396;48.742;9.128;2022-09-13T09:50:30;5.50;;;1.40;;
2480;SDS011;57396;48.742;9.128;2022-09-13T09:53:03;5.63;;;1.40;;
2480;SDS011;57396;48.742;9.128;2022-09-13T09:55:45;11.80;;;1.50;;
2480;SDS011;57396;48.742;9.128;2022-09-13T09:58:12;4.03;;;1.50;;
2480;SDS011;57396;48.742;9.128;2022-09-13T10:00:54;2.63;;;1.20;;
2480;SDS011;57396;48.742;9.128;2022-09-13T10:03:23;2.60;;;1.50;;
2480;SDS011;57396;48.742;9.128;2022-09-13T10:22:19;3.17;;;1.30;;
2480;SDS011;57396;48.742;9.128;2022-09-13T10:24:45;3.20;;;1.20;;
2480;SDS011;57396;48.742;9.128;2022-09-13T10:29:59;2.37;;;1.60;;
2480;SDS011;57396;48.742;9.128;2022-09-13T10:32:26;1.70;;;0.97;;
2480;SDS011;57396;48.742;9.128;2022-09-13T10:34:53;3.00;;;1.70;;
2480;SDS011;57396;48.742;9.128;2022-09-13T10:37:21;2.67;;;2.43;;
2480;SDS011;57396;48.742;9.128;2022-09-13T10:40:03;1.63;;;1.00;;
2480;SDS011;57396;48.742;9.128;2022-09-13T10:42:32;2.97;;;2.70;;
2480;SDS011;57396;48.742;9.128;2022-09-13T10:44:59;2.73;;;2.50;;
2480;SDS011;57396;48.742;9.128;2022-09-13T10:47:30;2.93;;;2.00;;
2480;SDS011;57396;48.742;9.128;2022-09-13T10:50:29;2.70;;;1.00;;
2480;SDS011;57396;48.742;9.128;2022-09-13T10:53:00;3.53;;;1.23;;
2480;SDS011;57396;48.742;9.128;2022-09-13T11:00:34;4.60;;;1.63;;
2480;SDS011;57396;48.742;9.128;2022-09-13T11:03:23;1.67;;;0.80;;
2480;SDS011;57396;48.742;9.128;2022-09-13T11:06:21;6.77;;;0.90;;
2480;SDS011;57396;48.742;9.128;2022-09-13T11:09:16;1.53;;;0.90;;
2480;SDS011;57396;48.742;9.128;2022-09-13T11:14:41;1.70;;;1.00;;
2480;SDS011;57396;48.742;9.128;2022-09-13T11:20:40;1.50;;;1.40;;
2480;SDS011;57396;48.742;9.128;2022-09-13T11:23:07;1.53;;;0.90;;
2480;SDS011;57396;48.742;9.128;2022-09-13T11:33:48;1.30;;;1.00;;
2480;SDS011;57396;48.742;9.128;2022-09-13T11:41:48;1.20;;;0.80;;
2480;SDS011;57396;48.742;9.128;2022-09-13T11:55:34;2.73;;;0.90;;
2480;SDS011;57396;48.742;9.128;2022-09-13T11:58:04;1.10;;;0.90;;
2480;SDS011;57396;48.742;9.128;2022-09-13T12:00:46;3.83;;;2.40;;
2480;SDS011;57396;48.742;9.128;2022-09-13T12:03:30;4.17;;;1.13;;
2480;SDS011;57396;48.742;9.128;2022-09-13T12:06:27;3.43;;;2.03;;
2480;SDS011;57396;48.742;9.128;2022-09-13T12:08:58;4.13;;;1.10;;
2480;SDS011;57396;48.742;9.128;2022-09-13T12:11:51;2.20;;;1.17;;
2480;SDS011;57396;48.742;9.128;2022-09-13T12:14:20;2.53;;;1.30;;
2480;SDS011;57396;48.742;9.128;2022-09-13T12:16:55;2.83;;;1.20;;
2480;SDS011;57396;48.742;9.128;2022-09-13T12:19:33;1.40;;;1.30;;
2480;SDS011;57396;48.742;9.128;2022-09-13T12:22:10;2.03;;;1.27;;
2480;SDS011;57396;48.742;9.128;2022-09-13T12:24:40;3.77;;;1.40;;
2480;SDS011;57396;48.742;9.128;2022-09-13T12:29:45;5.73;;;1.10;;
2480;SDS011;57396;48.742;9.128;2022-09-13T12:32:13;3.63;;;1.00;;
2480;SDS011;57396;48.742;9.128;2022-09-13T12:34:41;2.87;;;1.37;;
2480;SDS011;57396;48.742;9.128;2022-09-13T12:45:29;4.60;;;1.03;;
2480;SDS011;57396;48.742;9.128;2022-09-13T12:56:35;7.37;;;1.20;;
2480;SDS011;57396;48.742;9.128;2022-09-13T13:01:45;5.37;;;1.70;;
2480;SDS011;57396;48.742;9.128;2022-09-13T13:04:24;5.80;;;1.70;;
2480;SDS011;57396;48.742;9.128;2022-09-13T13:06:56;5.17;;;0.93;;
2480;SDS011;57396;48.742;9.128;2022-09-13T13:09:30;1.80;;;1.13;;
2480;SDS011;57396;48.742;9.128;2022-09-13T13:17:43;2.43;;;1.07;;
2480;SDS011;57396;48.742;9.128;2022-09-13T13:23:12;2.70;;;1.10;;
2480;SDS011;57396;48.742;9.128;2022-09-13T13:31:10;2.60;;;0.90;;
2480;SDS011;57396;48.742;9.128;2022-09-13T13:33:56;4.83;;;1.20;;
2480;SDS011;57396;48.742;9.128;2022-09-13T13:36:25;4.63;;;0.87;;
2480;SDS011;57396;48.742;9.128;2022-09-13T13:38:58;2.07;;;1.20;;
2480;SDS011;57396;48.742;9.128;2022-09-13T13:46:47;1.73;;;0.80;;
2480;SDS011;57396;48.742;9.128;2022-09-13T13:57:24;1.83;;;0.87;;
2480;SDS011;57396;48.742;9.128;2022-09-13T13:59:54;5.67;;;1.13;;
2480;SDS011;57396;48.742;9.128;2022-09-13T14:02:22;1.87;;;0.90;;
2480;SDS011;57396;48.742;9.128;2022-09-13T14:07:49;1.33;;;0.90;;
2480;SDS011;57396;48.742;9.128;2022-09-13T14:21:03;2.97;;;1.17;;
2480;SDS011;57396;48.742;9.128;2022-09-13T14:23:29;2.50;;;0.60;;
2480;SDS011;57396;48.742;9.128;2022-09-13T14:25:59;1.47;;;0.70;;
2480;SDS011;57396;48.742;9.128;2022-09-13T14:28:25;1.00;;;0.67;;
2480;SDS011;57396;48.742;9.128;2022-09-13T14:30:52;2.90;;;0.63;;
2480;SDS011;57396;48.742;9.128;2022-09-13T14:33:29;5.17;;;0.80;;
2480;SDS011;57396;48.742;9.128;2022-09-13T14:36:06;1.63;;;0.70;;
2480;SDS011;57396;48.742;9.128;2022-09-13T14:38:34;2.70;;;0.70;;
2480;SDS011;57396;48.742;9.128;2022-09-13T14:41:13;5.57;;;1.00;;
2480;SDS011;57396;48.742;9.128;2022-09-13T14:43:39;2.50;;;0.80;;
2480;SDS011;57396;48.742;9.128;2022-09-13T14:48:38;1.07;;;0.60;;
2480;SDS011;57396;48.742;9.128;2022-09-13T14:51:28;1.00;;;0.70;;
2480;SDS011;57396;48.742;9.128;2022-09-13T14:53:54;3.57;;;0.87;;
2480;SDS011;57396;48.742;9.128;2022-09-13T14:59:00;4.00;;;0.83;;
2480;SDS011;57396;48.742;9.128;2022-09-13T15:01:32;3.23;;;0.70;;
2480;SDS011;57396;48.742;9.128;2022-09-13T15:03:59;2.57;;;0.80;;
2480;SDS011;57396;48.742;9.128;2022-09-13T15:06:30;2.13;;;1.03;;
2480;SDS011;57396;48.742;9.128;2022-09-13T15:09:00;1.53;;;0.90;;
2480;SDS011;57396;48.742;9.128;2022-09-13T15:11:52;2.63;;;0.70;;
2480;SDS011;57396;48.742;9.128;2022-09-13T15:14:22;1.27;;;0.60;;
2480;SDS011;57396;48.742;9.128;2022-09-13T15:16:50;1.30;;;0.73;;
2480;SDS011;57396;48.742;9.128;2022-09-13T15:19:29;3.07;;;0.90;;
2480;SDS011;57396;48.742;9.128;2022-09-13T15:24:41;3.03;;;0.80;;
2480;SDS011;57396;48.742;9.128;2022-09-13T15:29:52;1.10;;;0.80;;
2480;SDS011;57396;48.742;9.128;2022-09-13T15:32:31;2.83;;;1.10;;
2480;SDS011;57396;48.742;9.128;2022-09-13T15:34:59;1.33;;;0.83;;
2480;SDS011;57396;48.742;9.128;2022-09-13T15:37:29;2.40;;;1.40;;
2480;SDS011;57396;48.742;9.128;2022-09-13T15:40:13;6.50;;;1.33;;
2480;SDS011;57396;48.742;9.128;2022-09-13T15:42:45;1.10;;;0.90;;
2480;SDS011;57396;48.742;9.128;2022-09-13T15:45:11;10.37;;;1.60;;
2480;SDS011;57396;48.742;9.128;2022-09-13T15:47:37;6.43;;;1.50;;
2480;SDS011;57396;48.742;9.128;2022-09-13T15:50:02;5.37;;;1.20;;
2480;SDS011;57396;48.742;9.128;2022-09-13T15:52:28;6.17;;;1.63;;
2480;SDS011;57396;48.742;9.128;2022-09-13T15:54:53;6.50;;;1.47;;
2480;SDS011;57396;48.742;9.128;2022-09-13T15:57:23;2.70;;;1.30;;
2480;SDS011;57396;48.742;9.128;2022-09-13T15:59:52;4.90;;;1.17;;
2480;SDS011;57396;48.742;9.128;2022-09-13T16:02:24;1.20;;;0.90;;
2480;SDS011;57396;48.742;9.128;2022-09-13T16:04:51;1.20;;;1.00;;
2480;SDS011;57396;48.742;9.128;2022-09-13T16:07:17;4.17;;;1.30;;
2480;SDS011;57396;48.742;9.128;2022-09-13T16:09:43;2.40;;;2.20;;
2480;SDS011;57396;48.742;9.128;2022-09-13T16:12:10;4.60;;;4.10;;
2480;SDS011;57396;48.742;9.128;2022-09-13T16:14:35;3.10;;;2.80;;
2480;SDS011;57396;48.742;9.128;2022-09-13T16:17:02;4.30;;;2.27;;
2480;SDS011;57396;48.742;9.128;2022-09-13T16:19:31;4.00;;;1.93;;
2480;SDS011;57396;48.742;9.128;2022-09-13T16:21:56;2.20;;;1.73;;
2480;SDS011;57396;48.742;9.128;2022-09-13T16:24:22;2.43;;;2.13;;
2480;SDS011;57396;48.742;9.128;2022-09-13T16:26:47;5.13;;;3.40;;
2480;SDS011;57396;48.742;9.128;2022-09-13T16:29:12;6.40;;;2.30;;
2480;SDS011;57396;48.742;9.128;2022-09-13T16:31:38;4.10;;;3.43;;
2480;SDS011;57396;48.742;9.128;2022-09-13T16:34:04;1.30;;;1.20;;
2480;SDS011;57396;48.742;9.128;2022-09-13T16:36:29;3.50;;;3.07;;
2480;SDS011;57396;48.742;9.128;2022-09-13T16:38:55;2.07;;;1.73;;
2480;SDS011;57396;48.742;9.128;2022-09-13T16:41:21;3.10;;;1.80;;
2480;SDS011;57396;48.742;9.128;2022-09-13T16:43:46;2.70;;;1.13;;
2480;SDS011;57396;48.742;9.128;2022-09-13T16:46:12;1.80;;;1.20;;
2480;SDS011;57396;48.742;9.128;2022-09-13T16:48:38;1.53;;;1.30;;
2480;SDS011;57396;48.742;9.128;2022-09-13T16:51:04;7.70;;;2.00;;
2480;SDS011;57396;48.742;9.128;2022-09-13T16:53:33;2.80;;;1.40;;
2480;SDS011;57396;48.742;9.128;2022-09-13T16:56:09;5.87;;;1.87;;
2480;SDS011;57396;48.742;9.128;2022-09-13T16:58:40;3.00;;;1.73;;
2480;SDS011;57396;48.742;9.128;2022-09-13T17:01:07;5.07;;;3.40;;
2480;SDS011;57396;48.742;9.128;2022-09-13T17:03:34;22.90;;;3.17;;
2480;SDS011;57396;48.742;9.128;2022-09-13T17:06:01;40.77;;;27.93;;
2480;SDS011;57396;48.742;9.128;2022-09-13T17:08:28;14.33;;;4.53;;
2480;SDS011;57396;48.742;9.128;2022-09-13T17:10:54;7.10;;;4.80;;
2480;SDS011;57396;48.742;9.128;2022-09-13T17:13:19;7.83;;;6.37;;
2480;SDS011;57396;48.742;9.128;2022-09-13T17:15:45;5.47;;;3.70;;
2480;SDS011;57396;48.742;9.128;2022-09-13T17:18:10;4.97;;;3.90;;
2480;SDS011;57396;48.742;9.128;2022-09-13T17:20:41;6.03;;;3.40;;
2480;SDS011;57396;48.742;9.128;2022-09-13T17:23:08;6.10;;;3.20;;
2480;SDS011;57396;48.742;9.128;2022-09-13T17:25:33;4.57;;;3.00;;
2480;SDS011;57396;48.742;9.128;2022-09-13T17:27:59;7.33;;;3.10;;
2480;SDS011;57396;48.742;9.128;2022-09-13T17:30:24;6.77;;;3.90;;
2480;SDS011;57396;48.742;9.128;2022-09-13T17:32:49;8.37;;;3.37;;
2480;SDS011;57396;48.742;9.128;2022-09-13T17:35:15;11.10;;;3.80;;
2480;SDS011;57396;48.742;9.128;2022-09-13T17:37:41;5.13;;;2.80;;
2480;SDS011;57396;48.742;9.128;2022-09-13T17:40:06;6.23;;;2.30;;
2480;SDS011;57396;48.742;9.128;2022-09-13T17:42:32;17.80;;;4.27;;
2480;SDS011;57396;48.742;9.128;2022-09-13T17:44:57;8.03;;;3.20;;
2480;SDS011;57396;48.742;9.128;2022-09-13T17:47:23;9.57;;;2.90;;
2480;SDS011;57396;48.742;9.128;2022-09-13T17:49:49;6.53;;;3.00;;
2480;SDS011;57396;48.742;9.128;2022-09-13T17:52:14;5.73;;;2.33;;
2480;SDS011;57396;48.742;9.128;2022-09-13T17:54:40;8.23;;;2.60;;
2480;SDS011;57396;48.742;9.128;2022-09-13T17:57:05;8.10;;;2.40;;
2480;SDS011;57396;48.742;9.128;2022-09-13T17:59:31;6.77;;;2.97;;
2480;SDS011;57396;48.742;9.128;2022-09-13T18:01:56;5.90;;;2.80;;
2480;SDS011;57396;48.742;9.128;2022-09-13T18:04:24;4.10;;;2.40;;
2480;SDS011;57396;48.742;9.128;2022-09-13T18:06:50;4.07;;;3.33;;
2480;SDS011;57396;48.742;9.128;2022-09-13T18:09:16;2.90;;;2.60;;
2480;SDS011;57396;48.742;9.128;2022-09-13T18:11:42;5.70;;;3.10;;
2480;SDS011;57396;48.742;9.128;2022-09-13T18:14:11;6.97;;;3.43;;
2480;SDS011;57396;48.742;9.128;2022-09-13T18:16:38;6.00;;;2.70;;
2480;SDS011;57396;48.742;9.128;2022-09-13T18:19:03;4.57;;;3.23;;
2480;SDS011;57396;48.742;9.128;2022-09-13T18:21:29;13.70;;;8.20;;
2480;SDS011;57396;48.742;9.128;2022-09-13T18:23:55;11.07;;;8.87;;
2480;SDS011;57396;48.742;9.128;2022-09-13T18:26:26;11.63;;;9.50;;
2480;SDS011;57396;48.742;9.128;2022-09-13T18:28:56;14.60;;;5.83;;
2480;SDS011;57396;48.742;9.128;2022-09-13T18:31:25;6.60;;;3.23;;
2480;SDS011;57396;48.742;9.128;2022-09-13T18:33:56;8.87;;;2.80;;
2480;SDS011;57396;48.742;9.128;2022-09-13T18:36:24;8.10;;;2.97;;
2480;SDS011;57396;48.742;9.128;2022-09-13T18:38:50;5.53;;;2.60;;